createdAt,value
2023-02-27T00:00:58.574Z,2.80
2023-02-27T00:08:00.439Z,3.65
2023-02-27T00:15:02.148Z,5.95
2023-02-27T00:22:03.900Z,3.65
2023-02-27T00:29:06.605Z,3.22
2023-02-27T00:36:08.449Z,3.17
2023-02-27T00:43:10.240Z,3.83
2023-02-27T00:50:12.601Z,3.22
2023-02-27T00:57:14.593Z,2.78
2023-02-27T01:04:16.444Z,6.60
2023-02-27T01:11:18.496Z,3.13
2023-02-27T01:18:20.280Z,3.08
2023-02-27T01:25:22.060Z,3.92
2023-02-27T01:32:23.947Z,2.75
2023-02-27T01:39:26.706Z,3.58
2023-02-27T01:46:29.255Z,2.97
2023-02-27T01:53:32.267Z,3.13
2023-02-27T02:00:34.185Z,2.80
2023-02-27T02:07:38.679Z,3.20
2023-02-27T02:14:40.516Z,3.08
2023-02-27T02:21:45.404Z,6.22
2023-02-27T02:28:54.534Z,2.88
2023-02-27T02:35:56.530Z,3.22
2023-02-27T02:43:07.452Z,5.38
2023-02-27T02:50:12.762Z,2.85
2023-02-27T02:57:19.889Z,2.90
2023-02-27T03:04:40.224Z,4.25
2023-02-27T03:11:44.382Z,4.38
2023-02-27T03:19:04.958Z,3.00
2023-02-27T03:26:07.220Z,3.20
2023-02-27T03:33:21.860Z,2.90
2023-02-27T03:40:38.314Z,3.13
2023-02-27T03:47:40.270Z,3.20
2023-02-27T03:54:46.405Z,5.20
2023-02-27T04:01:48.320Z,3.05
2023-02-27T04:09:06.392Z,3.20
2023-02-27T04:16:15.899Z,3.13
2023-02-27T04:23:24.522Z,2.80
2023-02-27T04:30:44.666Z,3.27
2023-02-27T04:37:49.028Z,3.10
2023-02-27T04:44:51.653Z,3.05
2023-02-27T04:51:57.105Z,4.28
2023-02-27T04:59:00.653Z,3.60
2023-02-27T05:06:03.037Z,4.25
2023-02-27T05:13:34.298Z,3.70
2023-02-27T05:20:54.629Z,8.93
2023-02-27T05:28:02.775Z,3.17
2023-02-27T05:35:09.338Z,4.57
2023-02-27T05:42:23.766Z,3.90
2023-02-27T05:49:31.728Z,3.92
2023-02-27T05:56:35.811Z,3.78
2023-02-27T06:03:38.551Z,3.85
2023-02-27T06:10:40.365Z,4.30
2023-02-27T06:17:42.203Z,4.45
2023-02-27T06:24:43.905Z,7.18
2023-02-27T06:31:45.771Z,17.38
2023-02-27T06:38:47.670Z,7.75
2023-02-27T06:45:49.953Z,4.35
2023-02-27T06:52:51.844Z,4.93
2023-02-27T06:59:53.547Z,6.80
2023-02-27T07:07:34.674Z,3.85
2023-02-27T07:14:17.260Z,6.65
2023-02-27T08:06:58.793Z,3.35
2023-02-27T08:14:01.753Z,4.55
2023-02-27T08:21:05.247Z,3.72
2023-02-27T08:28:06.994Z,3.47
2023-02-27T08:35:09.295Z,3.00
2023-02-27T08:42:11.156Z,3.58
2023-02-27T08:49:13.032Z,2.83
2023-02-27T08:56:14.788Z,3.00
2023-02-27T09:03:16.528Z,2.47
2023-02-27T09:10:18.300Z,2.95
2023-02-27T09:17:20.039Z,2.97
2023-02-27T09:24:22.176Z,5.45
2023-02-27T09:31:24.322Z,2.95
2023-02-27T10:23:40.706Z,2.67
2023-02-27T10:30:45.452Z,3.50
2023-02-27T10:37:52.522Z,2.90
2023-02-27T10:44:54.659Z,2.97
2023-02-27T10:52:14.415Z,3.00
2023-02-27T11:06:27.129Z,3.10
2023-02-27T11:13:33.884Z,3.38
2023-02-27T11:20:36.378Z,3.20
2023-02-27T11:27:38.322Z,3.13
2023-02-27T11:34:47.280Z,4.10
2023-02-27T11:41:49.641Z,2.70
2023-02-27T11:48:54.104Z,3.40
2023-02-27T11:55:59.758Z,3.35
2023-02-27T12:03:06.085Z,3.30
2023-02-27T12:10:25.338Z,4.40
2023-02-27T12:17:40.851Z,3.83
2023-02-27T12:24:58.272Z,4.30
2023-02-27T12:32:00.628Z,3.53
2023-02-27T12:39:04.795Z,3.88
2023-02-27T12:46:29.110Z,3.40
2023-02-27T12:53:51.280Z,3.38
2023-02-27T13:01:00.136Z,6.28
2023-02-27T13:08:27.992Z,3.30
2023-02-27T13:15:55.947Z,3.60
2023-02-27T13:23:17.475Z,3.47
2023-02-27T13:30:26.264Z,4.00
2023-02-27T13:37:51.200Z,3.43
2023-02-27T13:45:00.292Z,3.80
2023-02-27T13:52:03.102Z,3.10
2023-02-27T13:59:19.431Z,3.95
2023-02-27T14:06:23.481Z,3.78
2023-02-27T14:13:50.354Z,6.35
2023-02-27T14:20:52.458Z,3.92
2023-02-27T14:27:57.144Z,3.92
2023-02-27T14:34:59.570Z,5.07
2023-02-27T14:42:23.798Z,4.07
2023-02-27T14:49:29.226Z,4.95
2023-02-27T14:56:32.795Z,4.50
2023-02-27T15:03:38.976Z,4.15
2023-02-27T15:10:42.826Z,4.35
2023-02-27T15:17:48.587Z,6.35
2023-02-27T15:24:50.805Z,5.40
2023-02-27T15:31:53.678Z,8.65
2023-02-27T15:39:17.013Z,7.78
2023-02-27T15:46:18.931Z,4.95
2023-02-27T15:53:23.197Z,8.43
2023-02-27T16:00:25.325Z,11.15
2023-02-27T16:07:32.520Z,16.98
2023-02-27T16:14:43.851Z,27.30
2023-02-27T16:22:15.025Z,38.55
2023-02-27T16:29:22.315Z,21.10
2023-02-27T16:36:29.598Z,16.48
2023-02-27T16:43:33.515Z,20.27
2023-02-27T16:50:43.217Z,18.98
2023-02-27T16:57:45.399Z,24.52
2023-02-27T17:04:48.623Z,24.60
2023-02-27T17:11:51.316Z,24.83
2023-02-27T17:18:53.767Z,23.05
2023-02-27T17:25:56.763Z,24.08
2023-02-27T17:33:00.715Z,56.03
2023-02-27T17:40:06.354Z,59.70
2023-02-27T17:47:09.626Z,62.33
2023-02-27T17:54:12.350Z,57.35
2023-02-27T18:01:20.619Z,104.25
2023-02-27T18:08:23.488Z,84.53
2023-02-27T18:15:26.536Z,62.78
2023-02-27T18:22:30.727Z,52.20
2023-02-27T18:29:33.909Z,78.68
2023-02-27T18:36:40.075Z,71.43
2023-02-27T18:43:43.983Z,83.20
2023-02-27T18:50:46.920Z,82.40
2023-02-27T18:57:51.695Z,110.60
2023-02-27T19:04:54.858Z,96.25
2023-02-27T19:11:57.807Z,95.43
2023-02-27T19:19:01.997Z,111.07
2023-02-27T19:26:05.122Z,95.40
2023-02-27T19:33:08.418Z,104.57
2023-02-27T19:40:13.083Z,98.88
2023-02-27T19:47:16.309Z,117.40
2023-02-27T19:54:19.314Z,117.95
2023-02-27T20:01:31.745Z,146.65
2023-02-27T20:08:36.696Z,148.63
2023-02-27T20:15:39.805Z,154.75
2023-02-27T20:22:45.942Z,136.85
2023-02-27T20:29:56.534Z,129.55
2023-02-27T20:37:01.328Z,132.85
2023-02-27T20:44:06.224Z,112.55
2023-02-27T20:51:20.930Z,79.68
2023-02-27T20:58:24.142Z,83.45
2023-02-27T21:05:27.267Z,94.68
2023-02-27T21:12:29.811Z,90.15
2023-02-27T21:19:32.623Z,124.25
2023-02-27T21:26:38.200Z,116.55
2023-02-27T21:33:40.727Z,115.72
2023-02-27T21:40:43.099Z,124.47
2023-02-27T21:47:45.234Z,119.57
2023-02-27T21:54:47.228Z,114.78
2023-02-27T22:01:49.528Z,119.57
2023-02-27T22:08:58.802Z,107.07
2023-02-27T22:16:08.176Z,114.70
2023-02-27T22:23:10.322Z,101.00
2023-02-27T22:30:12.881Z,85.22
2023-02-27T22:37:16.370Z,76.10
2023-02-27T22:44:19.414Z,82.95
2023-02-27T22:51:21.470Z,54.22
2023-02-27T22:58:24.064Z,78.32
2023-02-27T23:05:26.110Z,78.68
2023-02-27T23:12:28.852Z,64.40
2023-02-27T23:19:31.127Z,77.88
2023-02-27T23:26:36.380Z,92.35
2023-02-27T23:33:38.417Z,98.50
2023-02-27T23:40:40.321Z,105.55
2023-02-27T23:47:43.329Z,109.70
2023-02-27T23:54:45.292Z,112.43
